createdAt,value
2016-05-11T00:00:45.450Z,0
2016-05-11T00:01:45.420Z,0
2016-05-11T00:02:58.236Z,0
2016-05-11T00:03:58.192Z,0
2016-05-11T00:05:04.694Z,0
2016-05-11T00:06:11.181Z,0
2016-05-11T00:06:48.387Z,0
2016-05-11T00:08:16.843Z,0
2016-05-11T00:09:16.847Z,0
2016-05-11T00:09:45.583Z,0
2016-05-11T00:10:45.616Z,0
2016-05-11T00:11:45.698Z,0
2016-05-11T00:12:58.232Z,0
2016-05-11T00:13:58.452Z,0
2016-05-11T00:15:04.738Z,0
2016-05-11T00:16:04.927Z,0
2016-05-11T00:16:45.586Z,0
2016-05-11T00:18:04.854Z,0
2016-05-11T00:18:48.826Z,0
2016-05-11T00:20:11.297Z,0
2016-05-11T00:20:45.799Z,0
2016-05-11T00:22:17.115Z,0
2016-05-11T00:22:55.462Z,0
2016-05-11T00:23:55.354Z,0
2016-05-11T00:25:08.296Z,0
2016-05-11T00:25:55.360Z,0
2016-05-11T00:27:14.754Z,0
2016-05-11T00:27:55.398Z,0
2016-05-11T00:30:11.121Z,0
2016-05-11T00:32:20.642Z,0
2016-05-11T00:33:20.692Z,0
2016-05-11T00:34:33.478Z,0
2016-05-11T00:35:39.965Z,0
2016-05-11T00:36:46.468Z,0
2016-05-11T00:37:39.845Z,0
2016-05-11T00:38:52.098Z,0
2016-05-11T00:39:20.802Z,0
2016-05-11T00:40:20.851Z,0
2016-05-11T00:41:33.685Z,0
2016-05-11T00:42:20.731Z,0
2016-05-11T00:43:20.890Z,0
2016-05-11T00:44:33.661Z,0
2016-05-11T00:45:33.711Z,0
2016-05-11T00:47:23.855Z,0
2016-05-11T00:48:43.016Z,0
2016-05-11T00:49:36.738Z,0
2016-05-11T00:50:24.035Z,0
2016-05-11T00:51:24.099Z,0
2016-05-11T00:52:24.071Z,0
2016-05-11T00:54:26.657Z,0
2016-05-11T00:54:39.032Z,0
2016-05-11T00:55:58.613Z,0
2016-05-11T00:56:42.584Z,0
2016-05-11T00:58:52.309Z,0
2016-05-11T00:59:51.983Z,0
2016-05-11T01:00:52.267Z,0
2016-05-11T01:02:04.894Z,0
2016-05-11T01:02:52.303Z,0
2016-05-11T01:03:52.353Z,0
2016-05-11T01:05:05.106Z,0
2016-05-11T01:05:52.421Z,0
2016-05-11T01:07:17.923Z,0
2016-05-11T01:07:52.458Z,0
2016-05-11T01:09:23.757Z,0
2016-05-11T01:10:11.650Z,0
2016-05-11T01:10:52.466Z,0
2016-05-11T01:12:55.065Z,0
2016-05-11T01:13:07.722Z,0
2016-05-11T01:14:07.474Z,0
2016-05-11T01:15:07.508Z,0
2016-05-11T01:16:20.713Z,0
2016-05-11T01:17:09.217Z,0
2016-05-11T01:18:07.859Z,0
2016-05-11T01:19:27.068Z,0
2016-05-11T01:20:07.896Z,0
2016-05-11T01:21:39.183Z,0
2016-05-11T01:22:27.107Z,0
2016-05-11T01:23:39.251Z,0
2016-05-11T01:24:39.237Z,0
2016-05-11T01:25:07.846Z,0
2016-05-11T01:27:10.587Z,0
2016-05-11T01:27:23.118Z,0
2016-05-11T01:28:23.355Z,0
2016-05-11T01:29:24.687Z,0
2016-05-11T01:30:23.985Z,0
2016-05-11T01:31:23.316Z,0
2016-05-11T01:32:23.209Z,0
2016-05-11T01:33:35.981Z,0
2016-05-11T01:34:24.825Z,0
2016-05-11T01:35:23.437Z,0
2016-05-11T01:36:26.676Z,0
2016-05-11T01:37:23.458Z,0
2016-05-11T01:38:23.335Z,0
2016-05-11T01:39:36.247Z,0
2016-05-11T01:40:36.264Z,0
2016-05-11T01:41:54.831Z,0
2016-05-11T01:42:42.786Z,0
2016-05-11T01:43:23.599Z,0
2016-05-11T01:44:49.292Z,0
2016-05-11T01:45:33.263Z,0
2016-05-11T01:46:33.265Z,0
2016-05-11T01:47:33.127Z,0
2016-05-11T01:48:33.303Z,0
2016-05-11T01:49:33.352Z,0
2016-05-11T01:50:33.371Z,0
2016-05-11T01:51:33.232Z,0
2016-05-11T01:52:33.391Z,0
2016-05-11T01:53:33.410Z,0
2016-05-11T01:54:33.115Z,0
2016-05-11T01:55:33.462Z,0
2016-05-11T01:56:33.355Z,0
2016-05-11T01:57:33.546Z,0
2016-05-11T01:58:35.063Z,0
2016-05-11T01:59:34.816Z,0
2016-05-11T02:00:33.912Z,0
2016-05-11T02:01:33.446Z,0
2016-05-11T02:02:46.355Z,0
2016-05-11T02:03:35.031Z,0
2016-05-11T02:04:33.643Z,0
2016-05-11T02:05:46.223Z,0
2016-05-11T02:06:34.959Z,0
2016-05-11T02:08:43.169Z,0
2016-05-11T02:10:02.530Z,0
2016-05-11T02:10:43.377Z,0
2016-05-11T02:12:45.961Z,0
2016-05-11T02:12:58.695Z,0
2016-05-11T02:13:58.494Z,0
2016-05-11T02:15:11.716Z,0
2016-05-11T02:16:11.438Z,0
2016-05-11T02:17:24.347Z,0
2016-05-11T02:17:58.739Z,0
2016-05-11T02:18:58.649Z,0
2016-05-11T02:19:58.761Z,0
2016-05-11T02:21:11.357Z,0
2016-05-11T02:22:11.547Z,0
2016-05-11T02:22:58.832Z,0
2016-05-11T02:25:27.635Z,0
2016-05-11T02:27:18.092Z,0
2016-05-11T02:29:15.098Z,0
2016-05-11T02:29:27.771Z,0
2016-05-11T02:30:27.478Z,0
2016-05-11T02:31:29.215Z,0
2016-05-11T02:32:27.827Z,0
2016-05-11T02:33:27.829Z,0
2016-05-11T02:34:40.692Z,0
2016-05-11T02:35:27.881Z,0
2016-05-11T02:36:40.353Z,0
2016-05-11T02:37:40.668Z,0
2016-05-11T02:38:28.609Z,0
2016-05-11T02:39:53.503Z,0
2016-05-11T02:40:40.739Z,0
2016-05-11T02:41:27.836Z,0
2016-05-11T02:42:27.869Z,0
2016-05-11T02:43:28.028Z,0
2016-05-11T02:44:31.093Z,0
2016-05-11T02:45:28.190Z,0
2016-05-11T02:46:27.942Z,4
2016-05-11T02:47:31.164Z,4
2016-05-11T02:48:27.980Z,4
2016-05-11T02:49:28.232Z,0
2016-05-11T02:50:27.875Z,0
2016-05-11T02:51:40.972Z,4
2016-05-11T02:52:27.912Z,4
2016-05-11T02:53:53.930Z,4
2016-05-11T02:54:28.324Z,4
2016-05-11T02:56:33.891Z,4
2016-05-11T02:56:46.235Z,4
2016-05-11T02:57:46.425Z,8
2016-05-11T02:58:46.444Z,8
2016-05-11T02:59:58.885Z,8
2016-05-11T03:01:05.559Z,8
2016-05-11T03:01:46.529Z,12
2016-05-11T03:02:46.532Z,12
2016-05-11T03:03:46.581Z,12
2016-05-11T03:04:46.600Z,16
2016-05-11T03:05:46.619Z,20
2016-05-11T03:06:46.637Z,20
2016-05-11T03:07:46.640Z,24
2016-05-11T03:08:46.642Z,28
2016-05-11T03:09:46.676Z,28
2016-05-11T03:10:46.569Z,32
2016-05-11T03:12:05.775Z,40
2016-05-11T03:12:59.372Z,48
2016-05-11T03:14:05.969Z,52
2016-05-11T03:15:21.736Z,60
2016-05-11T03:16:15.614Z,64
2016-05-11T03:16:49.992Z,72
2016-05-11T03:17:50.011Z,76
2016-05-11T03:18:53.091Z,84
2016-05-11T03:19:59.235Z,96
2016-05-11T03:20:50.065Z,108
2016-05-11T03:21:49.927Z,116
2016-05-11T03:22:50.086Z,128
2016-05-11T03:23:53.166Z,140
2016-05-11T03:25:02.702Z,160
2016-05-11T03:25:49.985Z,172
2016-05-11T03:27:15.691Z,204
2016-05-11T03:27:51.647Z,212
2016-05-11T03:28:50.243Z,228
2016-05-11T03:30:02.979Z,252
2016-05-11T03:30:53.192Z,264
2016-05-11T03:31:50.328Z,288
2016-05-11T03:33:02.948Z,312
2016-05-11T03:33:50.429Z,328
2016-05-11T03:34:50.502Z,360
2016-05-11T03:35:50.556Z,396
2016-05-11T03:37:09.776Z,444
2016-05-11T03:37:50.637Z,472
2016-05-11T03:39:21.935Z,532
2016-05-11T03:39:52.280Z,556
2016-05-11T03:40:50.561Z,596
2016-05-11T03:42:03.475Z,652
2016-05-11T03:43:09.810Z,704
2016-05-11T03:44:16.474Z,756
2016-05-11T03:45:16.810Z,800
2016-05-11T03:45:51.099Z,820
2016-05-11T03:47:19.557Z,884
2016-05-11T03:47:52.279Z,916
2016-05-11T03:48:50.893Z,968
2016-05-11T03:49:57.195Z,1028
2016-05-11T03:50:50.965Z,1076
2016-05-11T03:51:50.811Z,1128
2016-05-11T03:52:52.253Z,1184
2016-05-11T03:54:11.599Z,1256
2016-05-11T03:54:55.555Z,1304
2016-05-11T03:55:55.449Z,1380
2016-05-11T03:57:08.343Z,1488
2016-05-11T03:58:08.346Z,1584
2016-05-11T03:58:55.630Z,1656
2016-05-11T04:00:15.149Z,1764
2016-05-11T04:00:55.699Z,1812
2016-05-11T04:02:21.389Z,1912
2016-05-11T04:02:55.736Z,1948
2016-05-11T04:05:14.959Z,2092
2016-05-11T04:05:57.243Z,2132
2016-05-11T04:07:27.074Z,2220
2016-05-11T04:08:02.093Z,2256
2016-05-11T04:08:55.705Z,2316
2016-05-11T04:09:55.880Z,2388
2016-05-11T04:11:08.460Z,2468
2016-05-11T04:12:08.649Z,2532
2016-05-11T04:13:21.605Z,2612
2016-05-11T04:15:26.455Z,2748
2016-05-11T04:16:00.943Z,2784
2016-05-11T04:17:00.679Z,2852
2016-05-11T04:18:00.698Z,2920
2016-05-11T04:19:20.013Z,3016
2016-05-11T04:20:03.749Z,3064
2016-05-11T04:21:32.099Z,3176
2016-05-11T04:22:13.521Z,3228
2016-05-11T04:23:00.664Z,3284
2016-05-11T04:24:13.245Z,3372
2016-05-11T04:25:00.826Z,3436
2016-05-11T04:26:57.801Z,3584
2016-05-11T04:27:10.332Z,3596
2016-05-11T04:28:10.365Z,3672
2016-05-11T04:29:10.196Z,3740
2016-05-11T04:30:10.417Z,3808
2016-05-11T04:31:23.123Z,3884
2016-05-11T04:32:23.188Z,3948
2016-05-11T04:33:10.457Z,3988
2016-05-11T04:34:10.491Z,4056
2016-05-11T04:35:23.039Z,4140
2016-05-11T04:36:23.105Z,4208
2016-05-11T04:37:10.499Z,4260
2016-05-11T04:38:10.532Z,4336
2016-05-11T04:39:10.536Z,4408
2016-05-11T04:40:16.835Z,4484
2016-05-11T04:41:23.431Z,4564
2016-05-11T04:42:23.013Z,4632
2016-05-11T04:43:30.452Z,4704
2016-05-11T04:44:36.442Z,4772
2016-05-11T04:45:10.536Z,4804
2016-05-11T04:47:13.260Z,4920
2016-05-11T04:47:25.776Z,4932
2016-05-11T04:48:25.622Z,4984
2016-05-11T04:50:32.240Z,5096
2016-05-11T04:52:25.617Z,5200
2016-05-11T04:53:03.729Z,5264
2016-05-11T04:53:44.701Z,5340
2016-05-11T04:55:41.551Z,5508
2016-05-11T04:55:54.066Z,5564
2016-05-11T04:58:03.931Z,5872
2016-05-11T04:58:16.446Z,5968
2016-05-11T04:59:16.448Z,6176
2016-05-11T05:00:28.982Z,6400
2016-05-11T05:01:16.531Z,6568
2016-05-11T05:02:35.709Z,6900
2016-05-11T05:03:19.397Z,7124
2016-05-11T05:05:25.403Z,7988
2016-05-11T05:05:37.764Z,8340
2016-05-11T05:06:37.767Z,9928
2016-05-11T05:07:57.050Z,11452
2016-05-11T05:08:39.413Z,11640
2016-05-11T05:11:18.434Z,11904
2016-05-11T05:11:52.655Z,12000
2016-05-11T05:14:05.770Z,12396
2016-05-11T05:14:54.569Z,12508
2016-05-11T05:16:13.572Z,12664
2016-05-11T05:17:05.778Z,12776
2016-05-11T05:18:24.405Z,12876
2016-05-11T05:18:55.033Z,12924
2016-05-11T05:21:02.492Z,13212
2016-05-11T05:22:02.776Z,13228
2016-05-11T05:23:04.248Z,13320
2016-05-11T05:24:15.671Z,13548
2016-05-11T05:26:25.130Z,13808
2016-05-11T05:27:31.462Z,14024
2016-05-11T05:28:25.182Z,14432
2016-05-11T05:29:37.953Z,14848
2016-05-11T05:30:38.004Z,14944
2016-05-11T05:31:26.520Z,14944
2016-05-11T05:32:44.493Z,15008
2016-05-11T05:33:28.446Z,15264
2016-05-11T05:34:47.389Z,15520
2016-05-11T05:35:31.405Z,15776
2016-05-11T05:38:09.631Z,16384
2016-05-11T05:38:43.697Z,16512
2016-05-11T05:39:43.856Z,16608
2016-05-11T05:40:56.608Z,16800
2016-05-11T05:41:43.752Z,16928
2016-05-11T05:43:40.897Z,18016
2016-05-11T05:44:15.679Z,18592
2016-05-11T05:46:30.966Z,19936
2016-05-11T05:47:30.968Z,20064
2016-05-11T05:48:33.864Z,19968
2016-05-11T05:49:32.333Z,19520
2016-05-11T05:50:43.807Z,18528
2016-05-11T05:52:34.265Z,17600
2016-05-11T05:53:34.159Z,17952
2016-05-11T05:55:39.945Z,18304
2016-05-11T05:55:52.648Z,18272
2016-05-11T05:56:52.651Z,18016
2016-05-11T05:57:55.873Z,18048
2016-05-11T05:58:52.672Z,18080
2016-05-11T06:00:05.503Z,18240
2016-05-11T06:00:54.037Z,18368
2016-05-11T06:02:49.746Z,18784
2016-05-11T06:04:05.686Z,19104
2016-05-11T06:05:05.579Z,19168
2016-05-11T06:07:14.397Z,18880
2016-05-11T06:08:27.525Z,18560
2016-05-11T06:10:05.468Z,18432
2016-05-11T06:10:18.140Z,18432
2016-05-11T06:12:20.879Z,18592
2016-05-11T06:12:59.273Z,18624
2016-05-11T06:13:33.572Z,18688
2016-05-11T06:15:36.186Z,18912
2016-05-11T06:16:14.827Z,18944
2016-05-11T06:16:49.236Z,18880
2016-05-11T06:18:54.663Z,18720
2016-05-11T06:19:36.027Z,18976
2016-05-11T06:20:20.027Z,19136
2016-05-11T06:21:21.278Z,19168
2016-05-11T06:23:11.300Z,19168
2016-05-11T06:23:51.193Z,19232
2016-05-11T06:24:41.726Z,19296
2016-05-11T06:25:28.960Z,19392
2016-05-11T06:26:32.104Z,19744
2016-05-11T06:27:28.888Z,19872
2016-05-11T06:28:29.001Z,19936
2016-05-11T06:29:28.676Z,19744
2016-05-11T06:30:29.146Z,19648
2016-05-11T06:31:28.727Z,19808
2016-05-11T06:32:28.917Z,19712
2016-05-11T06:33:29.312Z,19616
2016-05-11T06:34:28.970Z,19488
2016-05-11T06:35:41.616Z,19616
2016-05-11T06:36:29.054Z,19616
2016-05-11T06:37:28.947Z,19424
2016-05-11T06:38:29.106Z,19392
2016-05-11T06:39:29.170Z,19456
2016-05-11T06:40:29.220Z,19584
2016-05-11T06:41:29.411Z,19808
2016-05-11T06:42:30.881Z,20288
2016-05-11T06:43:29.134Z,20448
2016-05-11T06:44:29.340Z,20512
2016-05-11T06:45:29.452Z,20512
2016-05-11T06:46:29.378Z,20576
2016-05-11T06:47:29.427Z,20672
2016-05-11T06:48:29.305Z,20480
2016-05-11T06:49:29.494Z,20480
2016-05-11T06:50:29.513Z,20512
2016-05-11T06:51:31.000Z,20512
2016-05-11T06:52:29.455Z,20896
2016-05-11T06:53:29.677Z,21728
2016-05-11T06:54:29.664Z,23072
2016-05-11T06:55:29.807Z,22592
2016-05-11T06:56:29.607Z,21280
2016-05-11T06:57:29.501Z,21056
2016-05-11T06:58:29.815Z,21376
2016-05-11T06:59:42.571Z,22400
2016-05-11T07:00:29.712Z,23488
2016-05-11T07:01:49.171Z,24896
2016-05-11T07:02:33.140Z,24640
2016-05-11T07:03:33.203Z,23552
2016-05-11T07:04:33.191Z,22336
2016-05-11T07:05:33.304Z,21408
2016-05-11T07:06:33.275Z,20768
2016-05-11T07:09:02.095Z,20352
2016-05-11T07:09:36.314Z,20416
2016-05-11T07:10:36.489Z,20608
2016-05-11T07:13:05.496Z,20960
2016-05-11T07:13:39.906Z,21280
2016-05-11T07:14:39.892Z,21984
2016-05-11T07:15:40.192Z,22816
2016-05-11T07:16:40.272Z,23808
2016-05-11T07:17:40.291Z,25056
2016-05-11T07:18:40.278Z,25440
2016-05-11T07:19:40.233Z,26144
2016-05-11T07:20:40.252Z,26976
2016-05-11T07:21:40.302Z,28544
2016-05-11T07:22:43.195Z,29888
2016-05-11T07:23:40.338Z,30784
2016-05-11T07:24:40.294Z,33312
2016-05-11T07:25:40.343Z,36864
2016-05-11T07:26:40.332Z,39360
2016-05-11T07:27:40.522Z,42848
2016-05-11T07:28:40.540Z,48352
2016-05-11T07:29:40.729Z,51424
2016-05-11T07:30:40.951Z,54272
2016-05-11T07:31:40.688Z,52544
2016-05-11T07:32:40.690Z,49888
2016-05-11T07:33:40.709Z,48704
2016-05-11T07:34:40.618Z,52032
2016-05-11T07:35:40.793Z,50944
2016-05-11T07:36:40.858Z,45632
2016-05-11T07:37:53.595Z,48192
2016-05-11T07:38:40.892Z,50080
2016-05-11T07:39:40.910Z,50528
2016-05-11T07:40:41.007Z,51264
2016-05-11T07:41:41.009Z,50592
2016-05-11T07:42:41.043Z,52512
2016-05-11T07:43:53.830Z,52864
2016-05-11T07:44:43.848Z,50880
2016-05-11T07:46:02.086Z,47904
2016-05-11T07:46:47.432Z,48256
2016-05-11T07:48:06.919Z,50592
2016-05-11T07:48:49.078Z,50880
2016-05-11T07:50:56.333Z,45920
2016-05-11T07:51:56.694Z,48192
2016-05-11T07:53:03.026Z,46560
2016-05-11T07:53:56.639Z,49696
2016-05-11T07:54:56.813Z,52160
2016-05-11T07:55:56.878Z,53056
2016-05-11T07:56:56.880Z,49408
2016-05-11T07:57:56.773Z,38048
2016-05-11T07:58:56.777Z,29536
2016-05-11T07:59:56.827Z,26752
2016-05-11T08:00:57.063Z,22208
2016-05-11T08:02:09.816Z,16288
2016-05-11T08:02:57.084Z,14876
2016-05-11T08:05:06.840Z,10996
2016-05-11T08:06:06.687Z,10808
2016-05-11T08:07:06.892Z,10600
2016-05-11T08:08:06.910Z,10664
2016-05-11T08:09:06.819Z,10596
2016-05-11T08:10:06.822Z,10584
2016-05-11T08:11:07.028Z,10616
2016-05-11T08:12:19.656Z,10640
2016-05-11T08:13:19.814Z,10460
2016-05-11T08:14:07.129Z,10460
2016-05-11T08:16:36.431Z,10508
2016-05-11T08:17:10.825Z,10584
2016-05-11T08:18:10.656Z,10676
2016-05-11T08:19:10.830Z,10732
2016-05-11T08:20:10.880Z,10772
2016-05-11T08:21:10.930Z,10816
2016-05-11T08:22:10.947Z,10880
2016-05-11T08:23:10.810Z,10884
2016-05-11T08:24:11.031Z,10888
2016-05-11T08:25:10.863Z,10964
2016-05-11T08:26:11.052Z,10960
2016-05-11T08:27:11.071Z,10948
2016-05-11T08:28:10.949Z,10948
2016-05-11T08:29:10.904Z,10956
2016-05-11T08:30:11.016Z,10940
2016-05-11T08:31:23.957Z,10992
2016-05-11T08:32:11.240Z,11016
2016-05-11T08:33:11.290Z,10980
2016-05-11T08:34:24.043Z,10860
2016-05-11T08:35:11.154Z,10832
2016-05-11T08:36:11.204Z,10764
2016-05-11T08:37:11.348Z,10744
2016-05-11T08:38:11.397Z,10716
2016-05-11T08:39:11.400Z,10688
2016-05-11T08:40:11.309Z,10700
2016-05-11T08:41:11.296Z,10740
2016-05-11T08:42:11.517Z,10780
2016-05-11T08:43:11.379Z,10856
2016-05-11T08:44:11.601Z,10928
2016-05-11T08:45:11.572Z,10972
2016-05-11T08:46:11.512Z,10996
2016-05-11T08:47:11.672Z,10988
2016-05-11T08:48:11.689Z,11004
2016-05-11T08:49:11.568Z,11016
2016-05-11T08:50:11.726Z,11000
2016-05-11T08:51:11.619Z,11036
2016-05-11T08:52:11.794Z,11068
2016-05-11T08:53:11.813Z,11136
2016-05-11T08:54:11.846Z,11148
2016-05-11T08:55:11.818Z,11168
2016-05-11T08:56:11.914Z,11236
2016-05-11T08:57:11.917Z,11224
2016-05-11T08:58:11.810Z,11152
2016-05-11T08:59:11.985Z,11100
2016-05-11T09:00:12.066Z,11052
2016-05-11T09:01:11.724Z,11020
2016-05-11T09:02:12.149Z,10952
2016-05-11T09:03:12.105Z,10860
2016-05-11T09:04:12.171Z,10808
2016-05-11T09:05:12.157Z,10732
2016-05-11T09:06:12.206Z,10600
2016-05-11T09:07:12.054Z,10488
2016-05-11T09:08:12.228Z,10416
2016-05-11T09:09:12.292Z,10336
2016-05-11T09:10:12.296Z,10228
2016-05-11T09:11:12.001Z,10164
2016-05-11T09:12:12.348Z,10068
2016-05-11T09:13:18.507Z,9932
2016-05-11T09:14:12.384Z,9824
2016-05-11T09:15:12.309Z,9764
2016-05-11T09:16:28.405Z,9652
2016-05-11T09:17:12.330Z,9536
2016-05-11T09:18:38.067Z,9384
2016-05-11T09:19:22.100Z,9328
2016-05-11T09:20:41.276Z,9248
2016-05-11T09:21:22.075Z,9212
2016-05-11T09:22:22.125Z,9132
2016-05-11T09:23:34.878Z,9024
2016-05-11T09:24:22.005Z,8928
2016-05-11T09:26:31.402Z,8872
2016-05-11T09:27:31.263Z,8816
2016-05-11T09:28:44.328Z,8764
2016-05-11T09:29:33.019Z,8760
2016-05-11T09:30:58.118Z,8756
2016-05-11T09:31:42.086Z,8760
2016-05-11T09:33:53.173Z,8740
2016-05-11T09:34:53.207Z,8752
2016-05-11T09:35:56.256Z,8756
2016-05-11T09:37:06.056Z,8732
2016-05-11T09:37:59.370Z,8736
2016-05-11T09:40:03.018Z,8784
2016-05-11T09:41:15.395Z,8832
2016-05-11T09:42:15.710Z,8852
2016-05-11T09:43:28.478Z,8952
2016-05-11T09:44:34.981Z,8924
2016-05-11T09:45:47.251Z,8832
2016-05-11T09:46:38.345Z,8816
2016-05-11T09:47:19.192Z,8812
2016-05-11T09:48:50.463Z,8776
2016-05-11T09:49:22.119Z,8748
2016-05-11T09:50:19.075Z,8712
2016-05-11T09:51:32.000Z,8668
2016-05-11T09:52:31.862Z,8628
2016-05-11T09:53:44.880Z,8560
2016-05-11T09:54:45.023Z,8468
2016-05-11T09:55:50.716Z,8388
2016-05-11T09:56:57.828Z,8272
2016-05-11T09:57:19.438Z,8240
2016-05-11T09:58:19.441Z,8160
2016-05-11T09:59:32.208Z,8040
2016-05-11T10:00:19.383Z,7956
2016-05-11T10:02:16.513Z,7748
2016-05-11T10:02:54.954Z,7700
2016-05-11T10:03:41.922Z,7652
2016-05-11T10:05:00.522Z,7548
2016-05-11T10:05:35.413Z,7520
2016-05-11T10:08:06.655Z,7368
2016-05-11T10:08:47.452Z,7332
2016-05-11T10:11:21.804Z,7216
2016-05-11T10:12:21.821Z,7172
2016-05-11T10:14:30.906Z,7124
2016-05-11T10:14:43.265Z,7124
2016-05-11T10:16:56.242Z,7080
2016-05-11T10:17:43.539Z,7048
2016-05-11T10:20:18.953Z,6972
2016-05-11T10:23:11.632Z,6840
2016-05-11T10:23:56.104Z,6832
2016-05-11T10:24:24.464Z,6856
2016-05-11T10:26:26.969Z,6948
2016-05-11T10:26:39.516Z,6952
2016-05-11T10:27:39.706Z,6968
2016-05-11T10:29:36.555Z,7424
2016-05-11T10:30:46.074Z,7744
2016-05-11T10:33:19.566Z,8504
2016-05-11T10:34:56.196Z,10156
2016-05-11T10:35:27.993Z,10504
2016-05-11T10:36:08.841Z,10676
2016-05-11T10:38:07.408Z,9984
2016-05-11T10:39:16.848Z,9788
2016-05-11T10:40:52.147Z,9676
2016-05-11T10:42:01.622Z,9576
2016-05-11T10:43:11.265Z,9268
2016-05-11T10:44:20.876Z,8964
2016-05-11T10:45:30.285Z,8896
2016-05-11T10:46:33.585Z,9268
2016-05-11T10:47:43.244Z,10048
2016-05-11T10:48:52.700Z,11596
2016-05-11T10:50:02.159Z,13252
2016-05-11T10:51:05.192Z,14080
2016-05-11T10:52:14.679Z,13824
2016-05-11T10:53:24.448Z,13200
2016-05-11T10:54:34.201Z,11956
2016-05-11T10:55:43.844Z,11172
2016-05-11T10:56:53.487Z,10576
2016-05-11T10:58:03.258Z,10104
2016-05-11T10:59:13.073Z,9312
2016-05-11T11:00:22.733Z,9612
2016-05-11T11:01:32.594Z,10916
2016-05-11T11:02:42.269Z,11736
2016-05-11T11:03:51.709Z,11924
2016-05-11T11:04:35.556Z,11944
2016-05-11T11:06:38.264Z,11416
2016-05-11T11:07:16.611Z,11464
2016-05-11T11:07:50.799Z,11132
2016-05-11T11:09:53.554Z,10212
2016-05-11T11:10:18.977Z,10172
2016-05-11T11:11:06.341Z,10132
2016-05-11T11:15:44.679Z,12840
2016-05-11T11:16:38.165Z,13440
2016-05-11T11:17:57.528Z,13764
2016-05-11T11:18:58.299Z,13560
2016-05-11T11:20:09.676Z,13364
2016-05-11T11:21:35.071Z,13720
2016-05-11T11:22:50.292Z,14164
2016-05-11T11:23:22.045Z,14168
2016-05-11T11:24:04.625Z,14216
2016-05-11T11:26:05.537Z,12932
2016-05-11T11:26:43.709Z,12496
2016-05-11T11:27:18.070Z,12060
2016-05-11T11:29:20.686Z,10808
2016-05-11T11:29:59.000Z,10544
2016-05-11T11:30:33.188Z,10444
2016-05-11T11:32:33.397Z,10320
2016-05-11T11:32:46.100Z,10284
2016-05-11T11:33:45.931Z,10076
2016-05-11T11:34:45.824Z,10560
2016-05-11T11:35:58.876Z,10856
2016-05-11T11:36:58.988Z,10968
2016-05-11T11:38:12.022Z,10932
2016-05-11T11:39:06.899Z,10792
2016-05-11T11:41:14.640Z,10472
2016-05-11T11:41:27.108Z,10488
2016-05-11T11:43:27.332Z,10708
2016-05-11T11:43:39.973Z,10772
2016-05-11T11:45:30.526Z,11152
2016-05-11T11:45:43.541Z,11216
2016-05-11T11:47:45.812Z,10776
2016-05-11T11:48:24.002Z,10592
2016-05-11T11:48:58.205Z,10524
2016-05-11T11:49:58.224Z,10460
2016-05-11T11:50:59.994Z,10576
2016-05-11T11:52:11.341Z,10484
2016-05-11T11:53:11.218Z,10264
2016-05-11T11:54:24.331Z,10248
2016-05-11T11:57:24.479Z,9864
2016-05-11T11:57:37.151Z,9836
2016-05-11T11:59:37.032Z,9760
2016-05-11T11:59:49.704Z,9748
2016-05-11T12:02:18.289Z,10020
2016-05-11T12:03:05.714Z,10196
2016-05-11T12:04:31.483Z,9996
2016-05-11T12:05:41.125Z,9896
2016-05-11T12:06:15.472Z,9476
2016-05-11T12:08:33.931Z,8692
2016-05-11T12:09:53.183Z,8720
2016-05-11T12:11:02.814Z,9076
2016-05-11T12:12:34.145Z,10588
2016-05-11T12:14:37.229Z,11024
2016-05-11T12:15:17.996Z,11212
2016-05-11T12:17:18.033Z,11808
2016-05-11T12:19:43.382Z,11804
2016-05-11T12:20:43.541Z,11856
2016-05-11T12:21:56.357Z,12256
2016-05-11T12:22:43.500Z,12336
2016-05-11T12:24:58.584Z,11808
2016-05-11T12:27:22.514Z,10352
2016-05-11T12:28:06.470Z,9608
2016-05-11T12:29:06.315Z,9288
2016-05-11T12:29:35.222Z,9124
2016-05-11T12:31:52.133Z,8964
2016-05-11T12:32:52.167Z,8972
2016-05-11T12:33:51.826Z,9012
2016-05-11T12:35:04.816Z,9360
2016-05-11T12:36:04.631Z,9468
2016-05-11T12:38:20.944Z,11060
2016-05-11T12:39:20.884Z,11064
2016-05-11T12:40:36.184Z,10720
2016-05-11T12:41:24.203Z,10548
2016-05-11T12:42:36.330Z,10460
2016-05-11T12:43:36.350Z,10768
2016-05-11T12:44:45.853Z,11120
2016-05-11T12:46:11.753Z,10992
2016-05-11T12:47:21.250Z,10828
2016-05-11T12:47:55.609Z,10604
2016-05-11T12:49:58.471Z,10312
2016-05-11T12:50:36.668Z,10184
2016-05-11T12:51:11.395Z,10036
2016-05-11T12:53:14.141Z,9288
2016-05-11T12:53:46.031Z,9216
2016-05-11T12:54:26.676Z,8844
2016-05-11T12:56:29.467Z,8132
2016-05-11T12:57:07.798Z,8004
2016-05-11T12:57:42.173Z,7968
2016-05-11T12:59:44.619Z,8056
2016-05-11T13:00:22.810Z,8156
2016-05-11T13:00:58.029Z,8292
2016-05-11T13:03:02.960Z,8640
2016-05-11T13:03:41.304Z,8692
2016-05-11T13:04:15.744Z,8828
2016-05-11T13:06:18.250Z,9088
2016-05-11T13:06:56.485Z,9080
2016-05-11T13:07:30.659Z,9004
2016-05-11T13:09:33.383Z,8436
2016-05-11T13:10:11.605Z,8280
2016-05-11T13:10:46.074Z,8176
2016-05-11T13:12:48.751Z,8048
2016-05-11T13:13:26.925Z,8132
2016-05-11T13:14:01.272Z,8232
2016-05-11T13:16:05.324Z,8772
2016-05-11T13:16:43.371Z,9072
2016-05-11T13:17:17.874Z,9392
2016-05-11T13:19:14.863Z,9948
2016-05-11T13:19:27.613Z,10116
2016-05-11T13:21:37.275Z,10212
2016-05-11T13:22:37.138Z,9836
2016-05-11T13:23:37.343Z,9588
2016-05-11T13:24:37.376Z,9584
2016-05-11T13:25:56.708Z,9828
2016-05-11T13:26:37.273Z,9968
2016-05-11T13:28:37.435Z,10528
2016-05-11T13:30:18.643Z,10352
2016-05-11T13:31:06.459Z,10056
2016-05-11T13:33:34.151Z,9816
2016-05-11T13:34:08.498Z,9820
2016-05-11T13:36:21.284Z,10272
2016-05-11T13:37:21.286Z,10504
2016-05-11T13:38:34.275Z,10856
2016-05-11T13:41:15.141Z,10792
2016-05-11T13:41:49.672Z,10228
2016-05-11T13:42:49.378Z,9672
2016-05-11T13:43:49.225Z,9440
2016-05-11T13:45:02.153Z,9508
2016-05-11T13:45:51.559Z,9736
2016-05-11T13:47:08.674Z,9984
2016-05-11T13:48:05.285Z,10112
2016-05-11T13:49:18.351Z,10252
2016-05-11T13:49:52.554Z,10312
2016-05-11T13:51:49.528Z,10468
2016-05-11T13:52:02.218Z,10540
2016-05-11T13:53:02.220Z,10608
2016-05-11T13:54:02.098Z,10664
2016-05-11T13:55:02.320Z,10648
2016-05-11T13:56:14.916Z,10608
2016-05-11T13:57:05.498Z,10548
2016-05-11T13:58:28.063Z,10496
2016-05-11T13:59:38.159Z,10436
2016-05-11T14:02:23.948Z,10336
2016-05-11T14:04:15.110Z,10692
2016-05-11T14:05:24.784Z,10812
2016-05-11T14:06:57.490Z,11092
2016-05-11T14:08:12.667Z,11204
2016-05-11T14:08:41.198Z,11236
2016-05-11T14:09:41.530Z,11340
2016-05-11T14:10:41.642Z,11460
2016-05-11T14:11:44.614Z,11548
2016-05-11T14:12:41.693Z,11620
2016-05-11T14:14:00.681Z,11704
2016-05-11T14:15:10.123Z,11788
2016-05-11T14:16:10.174Z,11848
2016-05-11T14:16:44.595Z,11876
2016-05-11T14:18:16.084Z,11968
2016-05-11T14:18:54.115Z,12012
2016-05-11T14:20:51.402Z,12112
2016-05-11T14:21:07.140Z,12156
2016-05-11T14:23:06.707Z,12264
2016-05-11T14:23:45.692Z,12304
2016-05-11T14:24:19.351Z,12336
2016-05-11T14:25:53.868Z,12440
2016-05-11T14:26:32.278Z,12484
2016-05-11T14:28:38.815Z,12620
2016-05-11T14:29:48.473Z,12668
2016-05-11T14:30:41.976Z,12768
2016-05-11T14:31:52.479Z,12804
2016-05-11T14:32:26.153Z,12836
2016-05-11T14:33:26.282Z,12884
2016-05-11T14:34:45.300Z,12936
2016-05-11T14:35:27.317Z,12948
2016-05-11T14:37:28.667Z,12944
2016-05-11T14:38:00.526Z,12936
2016-05-11T14:38:41.357Z,12920
2016-05-11T14:40:38.457Z,12880
2016-05-11T14:40:50.832Z,12876
2016-05-11T14:42:10.383Z,12852
2016-05-11T14:42:54.227Z,12800
2016-05-11T14:43:54.402Z,12748
2016-05-11T14:44:54.420Z,12692
2016-05-11T14:46:07.660Z,12684
2016-05-11T14:47:07.210Z,12692
2016-05-11T14:48:16.791Z,12700
2016-05-11T14:49:13.590Z,12720
2016-05-11T14:49:55.762Z,12720
2016-05-11T14:51:20.251Z,12752
2016-05-11T14:52:07.395Z,12752
2016-05-11T14:53:25.960Z,12748